sensor_id;sensor_type;location;lat;lon;timestamp;P1;durP1;ratioP1;P2;durP2;ratioP2
13969;SDS011;7057;49.984;8.404;2022-10-16T00:01:18;4.67;;;3.40;;
13969;SDS011;7057;49.984;8.404;2022-10-16T00:03:47;3.90;;;3.13;;
13969;SDS011;7057;49.984;8.404;2022-10-16T00:06:16;3.43;;;3.13;;
13969;SDS011;7057;49.984;8.404;2022-10-16T00:08:45;5.33;;;3.63;;
13969;SDS011;7057;49.984;8.404;2022-10-16T00:11:14;4.43;;;3.03;;
13969;SDS011;7057;49.984;8.404;2022-10-16T00:13:43;6.00;;;3.60;;
13969;SDS011;7057;49.984;8.404;2022-10-16T00:16:11;5.57;;;4.00;;
13969;SDS011;7057;49.984;8.404;2022-10-16T00:18:39;5.37;;;3.93;;
13969;SDS011;7057;49.984;8.404;2022-10-16T00:21:07;4.27;;;3.20;;
13969;SDS011;7057;49.984;8.404;2022-10-16T00:23:37;7.63;;;3.87;;
13969;SDS011;7057;49.984;8.404;2022-10-16T00:26:05;4.63;;;3.60;;
13969;SDS011;7057;49.984;8.404;2022-10-16T00:28:35;5.17;;;3.77;;
13969;SDS011;7057;49.984;8.404;2022-10-16T00:31:03;5.20;;;3.90;;
13969;SDS011;7057;49.984;8.404;2022-10-16T00:33:31;6.07;;;3.50;;
13969;SDS011;7057;49.984;8.404;2022-10-16T00:35:59;5.23;;;3.70;;
13969;SDS011;7057;49.984;8.404;2022-10-16T00:38:27;5.37;;;3.60;;
13969;SDS011;7057;49.984;8.404;2022-10-16T00:40:54;4.97;;;3.73;;
13969;SDS011;7057;49.984;8.404;2022-10-16T00:46:09;7.63;;;3.40;;
13969;SDS011;7057;49.984;8.404;2022-10-16T00:48:41;5.97;;;3.30;;
13969;SDS011;7057;49.984;8.404;2022-10-16T00:51:14;3.83;;;3.30;;
13969;SDS011;7057;49.984;8.404;2022-10-16T00:53:41;4.53;;;3.17;;
13969;SDS011;7057;49.984;8.404;2022-10-16T00:56:08;4.43;;;3.43;;
13969;SDS011;7057;49.984;8.404;2022-10-16T00:58:36;3.83;;;3.43;;
13969;SDS011;7057;49.984;8.404;2022-10-16T01:01:04;4.40;;;3.23;;
13969;SDS011;7057;49.984;8.404;2022-10-16T01:03:32;6.63;;;3.10;;
13969;SDS011;7057;49.984;8.404;2022-10-16T01:06:04;3.20;;;2.90;;
13969;SDS011;7057;49.984;8.404;2022-10-16T01:08:44;5.97;;;3.00;;
13969;SDS011;7057;49.984;8.404;2022-10-16T01:11:20;4.07;;;3.10;;
13969;SDS011;7057;49.984;8.404;2022-10-16T01:13:53;5.23;;;3.10;;
13969;SDS011;7057;49.984;8.404;2022-10-16T01:16:28;5.60;;;3.40;;
13969;SDS011;7057;49.984;8.404;2022-10-16T01:19:02;4.17;;;2.80;;
13969;SDS011;7057;49.984;8.404;2022-10-16T01:21:38;3.97;;;2.90;;
13969;SDS011;7057;49.984;8.404;2022-10-16T01:24:09;9.70;;;3.20;;
13969;SDS011;7057;49.984;8.404;2022-10-16T01:26:50;3.67;;;2.90;;
13969;SDS011;7057;49.984;8.404;2022-10-16T01:29:32;4.00;;;3.10;;
13969;SDS011;7057;49.984;8.404;2022-10-16T01:32:05;3.00;;;2.70;;
13969;SDS011;7057;49.984;8.404;2022-10-16T01:34:42;4.00;;;2.40;;
13969;SDS011;7057;49.984;8.404;2022-10-16T01:37:15;4.43;;;2.80;;
13969;SDS011;7057;49.984;8.404;2022-10-16T01:39:45;6.07;;;3.10;;
13969;SDS011;7057;49.984;8.404;2022-10-16T01:42:18;4.90;;;2.90;;
13969;SDS011;7057;49.984;8.404;2022-10-16T01:44:48;4.00;;;3.10;;
13969;SDS011;7057;49.984;8.404;2022-10-16T01:47:17;3.47;;;3.10;;
13969;SDS011;7057;49.984;8.404;2022-10-16T01:49:48;2.87;;;2.57;;
13969;SDS011;7057;49.984;8.404;2022-10-16T01:52:18;4.33;;;2.73;;
13969;SDS011;7057;49.984;8.404;2022-10-16T01:54:49;7.47;;;2.97;;
13969;SDS011;7057;49.984;8.404;2022-10-16T01:57:21;3.73;;;2.73;;
13969;SDS011;7057;49.984;8.404;2022-10-16T01:59:53;3.17;;;2.83;;
13969;SDS011;7057;49.984;8.404;2022-10-16T02:02:23;3.17;;;2.50;;
13969;SDS011;7057;49.984;8.404;2022-10-16T02:04:57;3.77;;;2.73;;
13969;SDS011;7057;49.984;8.404;2022-10-16T02:07:28;3.40;;;2.70;;
13969;SDS011;7057;49.984;8.404;2022-10-16T02:09:55;2.70;;;2.50;;
13969;SDS011;7057;49.984;8.404;2022-10-16T02:12:26;4.17;;;2.50;;
13969;SDS011;7057;49.984;8.404;2022-10-16T02:14:55;5.00;;;2.60;;
13969;SDS011;7057;49.984;8.404;2022-10-16T02:17:23;3.17;;;2.17;;
13969;SDS011;7057;49.984;8.404;2022-10-16T02:19:51;2.87;;;2.23;;
13969;SDS011;7057;49.984;8.404;2022-10-16T02:22:21;3.37;;;2.40;;
13969;SDS011;7057;49.984;8.404;2022-10-16T02:24:54;5.23;;;2.37;;
13969;SDS011;7057;49.984;8.404;2022-10-16T02:27:26;5.27;;;2.77;;
13969;SDS011;7057;49.984;8.404;2022-10-16T02:29:59;2.87;;;2.40;;
13969;SDS011;7057;49.984;8.404;2022-10-16T02:32:33;2.43;;;2.23;;
13969;SDS011;7057;49.984;8.404;2022-10-16T02:35:03;3.00;;;2.70;;
13969;SDS011;7057;49.984;8.404;2022-10-16T02:37:31;5.00;;;2.67;;
13969;SDS011;7057;49.984;8.404;2022-10-16T02:39:59;3.40;;;2.50;;
13969;SDS011;7057;49.984;8.404;2022-10-16T02:42:31;3.27;;;2.43;;
13969;SDS011;7057;49.984;8.404;2022-10-16T02:45:00;5.03;;;2.50;;
13969;SDS011;7057;49.984;8.404;2022-10-16T02:47:27;3.30;;;2.63;;
13969;SDS011;7057;49.984;8.404;2022-10-16T02:49:55;3.00;;;2.43;;
13969;SDS011;7057;49.984;8.404;2022-10-16T02:52:22;2.50;;;2.30;;
13969;SDS011;7057;49.984;8.404;2022-10-16T02:54:49;7.03;;;3.00;;
13969;SDS011;7057;49.984;8.404;2022-10-16T02:57:17;3.03;;;2.30;;
13969;SDS011;7057;49.984;8.404;2022-10-16T02:59:45;4.60;;;2.77;;
13969;SDS011;7057;49.984;8.404;2022-10-16T03:02:13;3.20;;;2.90;;
13969;SDS011;7057;49.984;8.404;2022-10-16T03:04:40;4.30;;;3.03;;
13969;SDS011;7057;49.984;8.404;2022-10-16T03:07:07;3.23;;;2.93;;
13969;SDS011;7057;49.984;8.404;2022-10-16T03:09:34;3.60;;;2.60;;
13969;SDS011;7057;49.984;8.404;2022-10-16T03:12:02;3.37;;;2.80;;
13969;SDS011;7057;49.984;8.404;2022-10-16T03:14:29;3.30;;;3.00;;
13969;SDS011;7057;49.984;8.404;2022-10-16T03:16:58;5.10;;;2.83;;
13969;SDS011;7057;49.984;8.404;2022-10-16T03:19:25;2.73;;;2.53;;
13969;SDS011;7057;49.984;8.404;2022-10-16T03:21:52;5.27;;;3.20;;
13969;SDS011;7057;49.984;8.404;2022-10-16T03:24:19;3.57;;;2.87;;
13969;SDS011;7057;49.984;8.404;2022-10-16T03:26:46;2.30;;;2.10;;
13969;SDS011;7057;49.984;8.404;2022-10-16T03:29:14;3.30;;;2.30;;
13969;SDS011;7057;49.984;8.404;2022-10-16T03:31:41;4.17;;;2.33;;
13969;SDS011;7057;49.984;8.404;2022-10-16T03:34:09;2.47;;;2.00;;
13969;SDS011;7057;49.984;8.404;2022-10-16T03:36:36;2.20;;;1.90;;
13969;SDS011;7057;49.984;8.404;2022-10-16T03:39:04;7.07;;;2.07;;
13969;SDS011;7057;49.984;8.404;2022-10-16T03:41:31;2.77;;;2.10;;
13969;SDS011;7057;49.984;8.404;2022-10-16T03:43:58;2.57;;;2.17;;
13969;SDS011;7057;49.984;8.404;2022-10-16T03:46:25;3.63;;;1.97;;
13969;SDS011;7057;49.984;8.404;2022-10-16T03:48:52;4.77;;;2.10;;
13969;SDS011;7057;49.984;8.404;2022-10-16T03:51:21;1.80;;;1.70;;
13969;SDS011;7057;49.984;8.404;2022-10-16T03:53:48;2.70;;;1.90;;
13969;SDS011;7057;49.984;8.404;2022-10-16T03:56:15;2.00;;;1.83;;
13969;SDS011;7057;49.984;8.404;2022-10-16T03:58:42;2.67;;;1.97;;
13969;SDS011;7057;49.984;8.404;2022-10-16T04:01:10;1.73;;;1.63;;
13969;SDS011;7057;49.984;8.404;2022-10-16T04:03:37;2.30;;;1.93;;
13969;SDS011;7057;49.984;8.404;2022-10-16T04:06:04;2.50;;;1.60;;
13969;SDS011;7057;49.984;8.404;2022-10-16T04:08:33;1.40;;;1.30;;
13969;SDS011;7057;49.984;8.404;2022-10-16T04:11:02;1.73;;;1.63;;
13969;SDS011;7057;49.984;8.404;2022-10-16T04:13:29;1.83;;;1.60;;
13969;SDS011;7057;49.984;8.404;2022-10-16T04:15:57;1.87;;;1.77;;
13969;SDS011;7057;49.984;8.404;2022-10-16T04:18:24;2.17;;;1.70;;
13969;SDS011;7057;49.984;8.404;2022-10-16T04:20:52;2.33;;;1.50;;
13969;SDS011;7057;49.984;8.404;2022-10-16T04:23:20;3.30;;;1.60;;
13969;SDS011;7057;49.984;8.404;2022-10-16T04:25:49;1.90;;;1.70;;
13969;SDS011;7057;49.984;8.404;2022-10-16T04:28:17;1.33;;;1.23;;
13969;SDS011;7057;49.984;8.404;2022-10-16T04:30:44;1.43;;;1.33;;
13969;SDS011;7057;49.984;8.404;2022-10-16T04:33:11;3.23;;;1.30;;
13969;SDS011;7057;49.984;8.404;2022-10-16T04:35:39;1.40;;;1.30;;
13969;SDS011;7057;49.984;8.404;2022-10-16T04:38:06;1.33;;;1.23;;
13969;SDS011;7057;49.984;8.404;2022-10-16T04:40:33;1.30;;;1.20;;
13969;SDS011;7057;49.984;8.404;2022-10-16T04:43:03;2.20;;;1.30;;
13969;SDS011;7057;49.984;8.404;2022-10-16T04:45:31;1.73;;;1.20;;
13969;SDS011;7057;49.984;8.404;2022-10-16T04:47:58;2.83;;;1.10;;
13969;SDS011;7057;49.984;8.404;2022-10-16T04:50:26;1.67;;;1.30;;
13969;SDS011;7057;49.984;8.404;2022-10-16T04:52:53;1.57;;;1.27;;
13969;SDS011;7057;49.984;8.404;2022-10-16T04:55:20;2.10;;;1.23;;
13969;SDS011;7057;49.984;8.404;2022-10-16T04:57:48;1.60;;;1.30;;
13969;SDS011;7057;49.984;8.404;2022-10-16T05:00:16;1.23;;;1.10;;
13969;SDS011;7057;49.984;8.404;2022-10-16T05:02:43;4.40;;;1.43;;
13969;SDS011;7057;49.984;8.404;2022-10-16T05:05:11;1.17;;;1.13;;
13969;SDS011;7057;49.984;8.404;2022-10-16T05:07:39;1.33;;;1.23;;
13969;SDS011;7057;49.984;8.404;2022-10-16T05:10:07;4.10;;;1.50;;
13969;SDS011;7057;49.984;8.404;2022-10-16T05:12:34;1.27;;;1.20;;
13969;SDS011;7057;49.984;8.404;2022-10-16T05:15:01;1.60;;;1.50;;
13969;SDS011;7057;49.984;8.404;2022-10-16T05:17:30;1.77;;;1.67;;
13969;SDS011;7057;49.984;8.404;2022-10-16T05:19:57;1.80;;;1.53;;
13969;SDS011;7057;49.984;8.404;2022-10-16T05:22:25;1.80;;;1.70;;
13969;SDS011;7057;49.984;8.404;2022-10-16T05:24:52;2.13;;;1.57;;
13969;SDS011;7057;49.984;8.404;2022-10-16T05:27:19;2.20;;;1.70;;
13969;SDS011;7057;49.984;8.404;2022-10-16T05:29:46;2.93;;;1.40;;
13969;SDS011;7057;49.984;8.404;2022-10-16T05:32:14;3.00;;;1.67;;
13969;SDS011;7057;49.984;8.404;2022-10-16T05:34:45;3.03;;;1.60;;
13969;SDS011;7057;49.984;8.404;2022-10-16T05:37:12;2.83;;;1.60;;
13969;SDS011;7057;49.984;8.404;2022-10-16T05:39:40;2.50;;;1.70;;
13969;SDS011;7057;49.984;8.404;2022-10-16T05:42:07;4.47;;;1.80;;
13969;SDS011;7057;49.984;8.404;2022-10-16T05:44:34;1.77;;;1.67;;
13969;SDS011;7057;49.984;8.404;2022-10-16T05:47:01;1.63;;;1.43;;
13969;SDS011;7057;49.984;8.404;2022-10-16T05:49:28;2.63;;;1.53;;
13969;SDS011;7057;49.984;8.404;2022-10-16T05:51:57;3.63;;;1.60;;
13969;SDS011;7057;49.984;8.404;2022-10-16T05:54:24;2.13;;;1.53;;
13969;SDS011;7057;49.984;8.404;2022-10-16T05:56:51;1.93;;;1.70;;
13969;SDS011;7057;49.984;8.404;2022-10-16T05:59:18;1.87;;;1.30;;
13969;SDS011;7057;49.984;8.404;2022-10-16T06:01:46;1.50;;;1.40;;
13969;SDS011;7057;49.984;8.404;2022-10-16T06:04:13;2.73;;;1.40;;
13969;SDS011;7057;49.984;8.404;2022-10-16T06:06:40;1.93;;;1.57;;
13969;SDS011;7057;49.984;8.404;2022-10-16T06:09:09;3.07;;;1.40;;
13969;SDS011;7057;49.984;8.404;2022-10-16T06:11:36;2.57;;;1.50;;
13969;SDS011;7057;49.984;8.404;2022-10-16T06:14:04;1.97;;;1.40;;
13969;SDS011;7057;49.984;8.404;2022-10-16T06:16:33;1.70;;;1.60;;
13969;SDS011;7057;49.984;8.404;2022-10-16T06:19:01;1.73;;;1.60;;
13969;SDS011;7057;49.984;8.404;2022-10-16T06:21:31;1.87;;;1.70;;
13969;SDS011;7057;49.984;8.404;2022-10-16T06:23:58;3.43;;;1.73;;
13969;SDS011;7057;49.984;8.404;2022-10-16T06:26:28;3.80;;;2.13;;
13969;SDS011;7057;49.984;8.404;2022-10-16T06:28:57;1.90;;;1.80;;
13969;SDS011;7057;49.984;8.404;2022-10-16T06:31:25;1.80;;;1.70;;
13969;SDS011;7057;49.984;8.404;2022-10-16T06:33:56;1.77;;;1.60;;
13969;SDS011;7057;49.984;8.404;2022-10-16T06:36:24;3.30;;;2.00;;
13969;SDS011;7057;49.984;8.404;2022-10-16T06:38:52;2.67;;;2.10;;
13969;SDS011;7057;49.984;8.404;2022-10-16T06:41:20;1.97;;;1.77;;
13969;SDS011;7057;49.984;8.404;2022-10-16T06:43:50;3.40;;;2.00;;
13969;SDS011;7057;49.984;8.404;2022-10-16T06:46:18;2.73;;;1.73;;
13969;SDS011;7057;49.984;8.404;2022-10-16T06:48:47;1.67;;;1.57;;
13969;SDS011;7057;49.984;8.404;2022-10-16T06:51:14;1.60;;;1.50;;
13969;SDS011;7057;49.984;8.404;2022-10-16T06:53:44;1.70;;;1.47;;
13969;SDS011;7057;49.984;8.404;2022-10-16T06:56:15;2.50;;;1.80;;
13969;SDS011;7057;49.984;8.404;2022-10-16T06:58:44;2.63;;;1.73;;
13969;SDS011;7057;49.984;8.404;2022-10-16T07:01:13;1.67;;;1.43;;
13969;SDS011;7057;49.984;8.404;2022-10-16T07:03:42;2.10;;;1.80;;
13969;SDS011;7057;49.984;8.404;2022-10-16T07:06:12;2.33;;;1.87;;
13969;SDS011;7057;49.984;8.404;2022-10-16T07:08:41;3.00;;;1.97;;
13969;SDS011;7057;49.984;8.404;2022-10-16T07:11:10;4.87;;;1.90;;
13969;SDS011;7057;49.984;8.404;2022-10-16T07:13:39;3.20;;;2.07;;
13969;SDS011;7057;49.984;8.404;2022-10-16T07:16:07;4.43;;;2.30;;
13969;SDS011;7057;49.984;8.404;2022-10-16T07:18:37;4.23;;;1.93;;
13969;SDS011;7057;49.984;8.404;2022-10-16T07:21:06;2.07;;;1.90;;
13969;SDS011;7057;49.984;8.404;2022-10-16T07:23:34;2.63;;;2.03;;
13969;SDS011;7057;49.984;8.404;2022-10-16T07:26:01;4.03;;;2.80;;
13969;SDS011;7057;49.984;8.404;2022-10-16T07:28:29;3.27;;;2.60;;
13969;SDS011;7057;49.984;8.404;2022-10-16T07:30:59;4.43;;;2.70;;
13969;SDS011;7057;49.984;8.404;2022-10-16T07:33:27;2.87;;;2.40;;
13969;SDS011;7057;49.984;8.404;2022-10-16T07:35:56;3.40;;;3.10;;
13969;SDS011;7057;49.984;8.404;2022-10-16T07:38:23;4.27;;;2.80;;
13969;SDS011;7057;49.984;8.404;2022-10-16T07:40:55;3.87;;;3.23;;
13969;SDS011;7057;49.984;8.404;2022-10-16T07:43:22;3.93;;;3.30;;
13969;SDS011;7057;49.984;8.404;2022-10-16T07:45:50;4.23;;;3.13;;
13969;SDS011;7057;49.984;8.404;2022-10-16T07:48:17;3.40;;;3.10;;
13969;SDS011;7057;49.984;8.404;2022-10-16T07:50:45;4.37;;;3.70;;
13969;SDS011;7057;49.984;8.404;2022-10-16T07:53:14;3.90;;;3.50;;
13969;SDS011;7057;49.984;8.404;2022-10-16T07:55:41;3.80;;;3.10;;
13969;SDS011;7057;49.984;8.404;2022-10-16T07:58:09;5.20;;;3.37;;
13969;SDS011;7057;49.984;8.404;2022-10-16T08:00:36;3.67;;;3.10;;
13969;SDS011;7057;49.984;8.404;2022-10-16T08:03:03;7.83;;;3.20;;
13969;SDS011;7057;49.984;8.404;2022-10-16T08:05:31;3.30;;;3.00;;
13969;SDS011;7057;49.984;8.404;2022-10-16T08:07:59;3.27;;;2.93;;
13969;SDS011;7057;49.984;8.404;2022-10-16T08:10:28;3.80;;;3.33;;
13969;SDS011;7057;49.984;8.404;2022-10-16T08:12:57;3.83;;;3.50;;
13969;SDS011;7057;49.984;8.404;2022-10-16T08:15:25;3.67;;;2.93;;
13969;SDS011;7057;49.984;8.404;2022-10-16T08:17:55;4.03;;;2.67;;
13969;SDS011;7057;49.984;8.404;2022-10-16T08:20:24;5.57;;;2.73;;
13969;SDS011;7057;49.984;8.404;2022-10-16T08:22:52;2.57;;;2.27;;
13969;SDS011;7057;49.984;8.404;2022-10-16T08:25:20;2.50;;;2.30;;
13969;SDS011;7057;49.984;8.404;2022-10-16T08:27:49;2.50;;;2.03;;
13969;SDS011;7057;49.984;8.404;2022-10-16T08:30:17;3.27;;;1.90;;
13969;SDS011;7057;49.984;8.404;2022-10-16T08:32:46;3.53;;;2.00;;
13969;SDS011;7057;49.984;8.404;2022-10-16T08:35:13;2.33;;;2.13;;
13969;SDS011;7057;49.984;8.404;2022-10-16T08:37:41;3.17;;;2.13;;
13969;SDS011;7057;49.984;8.404;2022-10-16T08:40:13;2.50;;;2.30;;
13969;SDS011;7057;49.984;8.404;2022-10-16T08:42:53;4.87;;;2.20;;
13969;SDS011;7057;49.984;8.404;2022-10-16T08:45:32;3.70;;;2.40;;
13969;SDS011;7057;49.984;8.404;2022-10-16T08:48:15;3.37;;;2.57;;
13969;SDS011;7057;49.984;8.404;2022-10-16T08:50:47;3.27;;;2.47;;
13969;SDS011;7057;49.984;8.404;2022-10-16T08:53:17;3.60;;;2.47;;
13969;SDS011;7057;49.984;8.404;2022-10-16T08:55:50;3.10;;;2.60;;
13969;SDS011;7057;49.984;8.404;2022-10-16T08:58:20;5.17;;;2.73;;
13969;SDS011;7057;49.984;8.404;2022-10-16T09:00:49;4.03;;;2.90;;
13969;SDS011;7057;49.984;8.404;2022-10-16T09:03:31;4.37;;;3.03;;
13969;SDS011;7057;49.984;8.404;2022-10-16T09:06:10;5.13;;;2.60;;
13969;SDS011;7057;49.984;8.404;2022-10-16T09:08:46;5.13;;;3.40;;
13969;SDS011;7057;49.984;8.404;2022-10-16T09:11:22;3.80;;;2.83;;
13969;SDS011;7057;49.984;8.404;2022-10-16T09:13:59;3.90;;;2.20;;
13969;SDS011;7057;49.984;8.404;2022-10-16T09:16:34;4.37;;;2.70;;
13969;SDS011;7057;49.984;8.404;2022-10-16T09:19:09;6.87;;;2.93;;
13969;SDS011;7057;49.984;8.404;2022-10-16T09:21:43;6.03;;;2.60;;
13969;SDS011;7057;49.984;8.404;2022-10-16T09:24:13;3.60;;;2.57;;
13969;SDS011;7057;49.984;8.404;2022-10-16T09:26:42;2.83;;;2.57;;
13969;SDS011;7057;49.984;8.404;2022-10-16T09:29:11;4.13;;;2.70;;
13969;SDS011;7057;49.984;8.404;2022-10-16T09:31:40;5.10;;;2.40;;
13969;SDS011;7057;49.984;8.404;2022-10-16T09:34:11;2.90;;;1.87;;
13969;SDS011;7057;49.984;8.404;2022-10-16T09:36:49;3.60;;;2.10;;
13969;SDS011;7057;49.984;8.404;2022-10-16T09:39:18;2.27;;;1.90;;
13969;SDS011;7057;49.984;8.404;2022-10-16T09:41:45;2.57;;;2.03;;
13969;SDS011;7057;49.984;8.404;2022-10-16T09:44:17;2.20;;;2.00;;
13969;SDS011;7057;49.984;8.404;2022-10-16T09:46:47;2.17;;;1.80;;
13969;SDS011;7057;49.984;8.404;2022-10-16T09:49:21;3.73;;;1.90;;
13969;SDS011;7057;49.984;8.404;2022-10-16T09:51:50;2.30;;;2.10;;
13969;SDS011;7057;49.984;8.404;2022-10-16T09:54:19;2.43;;;2.03;;
13969;SDS011;7057;49.984;8.404;2022-10-16T09:56:48;3.63;;;2.67;;
13969;SDS011;7057;49.984;8.404;2022-10-16T09:59:19;4.90;;;2.70;;
13969;SDS011;7057;49.984;8.404;2022-10-16T10:01:49;6.97;;;2.67;;
13969;SDS011;7057;49.984;8.404;2022-10-16T10:04:18;3.00;;;2.43;;
13969;SDS011;7057;49.984;8.404;2022-10-16T10:06:48;2.97;;;2.20;;
13969;SDS011;7057;49.984;8.404;2022-10-16T10:09:19;3.20;;;2.70;;
13969;SDS011;7057;49.984;8.404;2022-10-16T10:11:50;3.30;;;2.43;;
13969;SDS011;7057;49.984;8.404;2022-10-16T10:14:24;2.70;;;2.47;;
13969;SDS011;7057;49.984;8.404;2022-10-16T10:17:02;3.87;;;2.73;;
13969;SDS011;7057;49.984;8.404;2022-10-16T10:19:43;2.93;;;2.63;;
13969;SDS011;7057;49.984;8.404;2022-10-16T10:22:24;3.40;;;2.07;;
13969;SDS011;7057;49.984;8.404;2022-10-16T10:24:56;3.43;;;2.33;;
13969;SDS011;7057;49.984;8.404;2022-10-16T10:27:27;2.83;;;2.10;;
13969;SDS011;7057;49.984;8.404;2022-10-16T10:30:02;2.20;;;2.00;;
13969;SDS011;7057;49.984;8.404;2022-10-16T10:32:41;4.17;;;2.13;;
13969;SDS011;7057;49.984;8.404;2022-10-16T10:35:15;2.10;;;1.90;;
13969;SDS011;7057;49.984;8.404;2022-10-16T10:37:51;2.40;;;2.20;;
13969;SDS011;7057;49.984;8.404;2022-10-16T10:40:40;4.40;;;2.57;;
13969;SDS011;7057;49.984;8.404;2022-10-16T10:43:18;2.63;;;2.43;;
13969;SDS011;7057;49.984;8.404;2022-10-16T10:46:01;3.07;;;2.70;;
13969;SDS011;7057;49.984;8.404;2022-10-16T10:48:38;2.70;;;2.50;;
13969;SDS011;7057;49.984;8.404;2022-10-16T10:51:19;2.97;;;2.60;;
13969;SDS011;7057;49.984;8.404;2022-10-16T10:53:52;4.57;;;3.03;;
13969;SDS011;7057;49.984;8.404;2022-10-16T10:56:38;5.57;;;2.80;;
13969;SDS011;7057;49.984;8.404;2022-10-16T10:59:20;5.80;;;3.20;;
13969;SDS011;7057;49.984;8.404;2022-10-16T11:02:15;2.93;;;2.70;;
13969;SDS011;7057;49.984;8.404;2022-10-16T11:04:50;3.27;;;2.97;;
13969;SDS011;7057;49.984;8.404;2022-10-16T11:07:27;4.00;;;3.00;;
13969;SDS011;7057;49.984;8.404;2022-10-16T11:09:59;3.50;;;3.10;;
13969;SDS011;7057;49.984;8.404;2022-10-16T11:12:31;3.20;;;2.63;;
13969;SDS011;7057;49.984;8.404;2022-10-16T11:15:02;4.80;;;2.77;;
13969;SDS011;7057;49.984;8.404;2022-10-16T11:17:36;3.33;;;2.63;;
13969;SDS011;7057;49.984;8.404;2022-10-16T11:20:11;2.77;;;2.03;;
13969;SDS011;7057;49.984;8.404;2022-10-16T11:22:43;4.63;;;2.20;;
13969;SDS011;7057;49.984;8.404;2022-10-16T11:25:16;5.17;;;2.20;;
13969;SDS011;7057;49.984;8.404;2022-10-16T11:27:49;2.87;;;2.20;;
13969;SDS011;7057;49.984;8.404;2022-10-16T11:30:22;2.53;;;2.33;;
13969;SDS011;7057;49.984;8.404;2022-10-16T11:35:47;3.27;;;2.20;;
13969;SDS011;7057;49.984;8.404;2022-10-16T11:38:20;2.10;;;1.90;;
13969;SDS011;7057;49.984;8.404;2022-10-16T11:40:56;2.23;;;1.97;;
13969;SDS011;7057;49.984;8.404;2022-10-16T11:43:29;4.37;;;2.33;;
13969;SDS011;7057;49.984;8.404;2022-10-16T11:46:03;4.93;;;2.40;;
13969;SDS011;7057;49.984;8.404;2022-10-16T11:48:39;2.67;;;2.40;;
13969;SDS011;7057;49.984;8.404;2022-10-16T11:51:11;3.07;;;2.30;;
13969;SDS011;7057;49.984;8.404;2022-10-16T11:53:46;4.03;;;2.40;;
13969;SDS011;7057;49.984;8.404;2022-10-16T11:56:20;3.90;;;2.03;;
13969;SDS011;7057;49.984;8.404;2022-10-16T11:58:51;2.77;;;2.13;;
13969;SDS011;7057;49.984;8.404;2022-10-16T12:01:25;2.20;;;1.93;;
13969;SDS011;7057;49.984;8.404;2022-10-16T12:04:02;1.93;;;1.73;;
13969;SDS011;7057;49.984;8.404;2022-10-16T12:06:42;2.03;;;1.83;;
13969;SDS011;7057;49.984;8.404;2022-10-16T12:09:14;1.70;;;1.60;;
13969;SDS011;7057;49.984;8.404;2022-10-16T12:11:46;2.63;;;1.73;;
13969;SDS011;7057;49.984;8.404;2022-10-16T12:14:18;1.30;;;1.20;;
13969;SDS011;7057;49.984;8.404;2022-10-16T12:17:02;1.60;;;1.50;;
13969;SDS011;7057;49.984;8.404;2022-10-16T12:19:33;2.00;;;1.70;;
13969;SDS011;7057;49.984;8.404;2022-10-16T12:22:00;1.90;;;1.50;;
13969;SDS011;7057;49.984;8.404;2022-10-16T12:24:33;2.07;;;1.67;;
13969;SDS011;7057;49.984;8.404;2022-10-16T12:27:02;1.57;;;1.33;;
13969;SDS011;7057;49.984;8.404;2022-10-16T12:29:33;1.60;;;1.50;;
13969;SDS011;7057;49.984;8.404;2022-10-16T12:32:03;3.03;;;1.63;;
13969;SDS011;7057;49.984;8.404;2022-10-16T12:34:36;1.77;;;1.60;;
13969;SDS011;7057;49.984;8.404;2022-10-16T12:37:10;2.40;;;1.20;;
13969;SDS011;7057;49.984;8.404;2022-10-16T12:39:40;1.67;;;1.40;;
13969;SDS011;7057;49.984;8.404;2022-10-16T12:42:19;1.97;;;1.87;;
13969;SDS011;7057;49.984;8.404;2022-10-16T12:44:48;1.80;;;1.50;;
13969;SDS011;7057;49.984;8.404;2022-10-16T12:47:20;1.70;;;1.60;;
13969;SDS011;7057;49.984;8.404;2022-10-16T12:49:50;2.83;;;1.80;;
13969;SDS011;7057;49.984;8.404;2022-10-16T12:52:28;1.50;;;1.40;;
13969;SDS011;7057;49.984;8.404;2022-10-16T12:55:03;1.73;;;1.63;;
13969;SDS011;7057;49.984;8.404;2022-10-16T12:57:41;1.63;;;1.50;;
13969;SDS011;7057;49.984;8.404;2022-10-16T13:00:21;1.83;;;1.53;;
13969;SDS011;7057;49.984;8.404;2022-10-16T13:06:02;2.37;;;1.93;;
13969;SDS011;7057;49.984;8.404;2022-10-16T13:08:43;1.80;;;1.70;;
13969;SDS011;7057;49.984;8.404;2022-10-16T13:11:26;1.80;;;1.70;;
13969;SDS011;7057;49.984;8.404;2022-10-16T13:14:05;1.97;;;1.73;;
13969;SDS011;7057;49.984;8.404;2022-10-16T13:16:50;2.10;;;1.90;;
13969;SDS011;7057;49.984;8.404;2022-10-16T13:19:28;1.60;;;1.50;;
13969;SDS011;7057;49.984;8.404;2022-10-16T13:22:01;2.73;;;1.50;;
13969;SDS011;7057;49.984;8.404;2022-10-16T13:24:40;1.87;;;1.70;;
13969;SDS011;7057;49.984;8.404;2022-10-16T13:27:18;2.50;;;1.70;;
13969;SDS011;7057;49.984;8.404;2022-10-16T13:29:52;3.10;;;1.60;;
13969;SDS011;7057;49.984;8.404;2022-10-16T13:32:26;2.80;;;1.80;;
13969;SDS011;7057;49.984;8.404;2022-10-16T13:34:54;1.97;;;1.80;;
13969;SDS011;7057;49.984;8.404;2022-10-16T13:37:23;1.80;;;1.70;;
13969;SDS011;7057;49.984;8.404;2022-10-16T13:40:01;2.13;;;1.93;;
13969;SDS011;7057;49.984;8.404;2022-10-16T13:42:34;1.90;;;1.77;;
13969;SDS011;7057;49.984;8.404;2022-10-16T13:45:01;1.93;;;1.83;;
13969;SDS011;7057;49.984;8.404;2022-10-16T13:47:28;1.83;;;1.60;;
13969;SDS011;7057;49.984;8.404;2022-10-16T13:49:59;2.43;;;1.90;;
13969;SDS011;7057;49.984;8.404;2022-10-16T13:52:29;2.20;;;1.77;;
13969;SDS011;7057;49.984;8.404;2022-10-16T13:54:56;1.73;;;1.63;;
13969;SDS011;7057;49.984;8.404;2022-10-16T13:57:24;1.83;;;1.70;;
13969;SDS011;7057;49.984;8.404;2022-10-16T13:59:52;1.90;;;1.80;;
13969;SDS011;7057;49.984;8.404;2022-10-16T14:02:21;2.17;;;1.90;;
13969;SDS011;7057;49.984;8.404;2022-10-16T14:04:51;1.87;;;1.73;;
13969;SDS011;7057;49.984;8.404;2022-10-16T14:07:21;3.97;;;3.57;;
13969;SDS011;7057;49.984;8.404;2022-10-16T14:09:53;2.90;;;2.17;;
13969;SDS011;7057;49.984;8.404;2022-10-16T14:12:21;1.80;;;1.70;;
13969;SDS011;7057;49.984;8.404;2022-10-16T14:14:50;2.73;;;1.93;;
13969;SDS011;7057;49.984;8.404;2022-10-16T14:17:20;2.10;;;1.90;;
13969;SDS011;7057;49.984;8.404;2022-10-16T14:19:51;3.27;;;2.07;;
13969;SDS011;7057;49.984;8.404;2022-10-16T14:22:26;2.20;;;2.00;;
13969;SDS011;7057;49.984;8.404;2022-10-16T14:24:57;2.27;;;2.07;;
13969;SDS011;7057;49.984;8.404;2022-10-16T14:27:28;2.37;;;2.00;;
13969;SDS011;7057;49.984;8.404;2022-10-16T14:30:08;3.17;;;2.40;;
13969;SDS011;7057;49.984;8.404;2022-10-16T14:32:40;2.27;;;1.90;;
13969;SDS011;7057;49.984;8.404;2022-10-16T14:35:21;2.37;;;2.17;;
13969;SDS011;7057;49.984;8.404;2022-10-16T14:37:53;4.40;;;2.23;;
13969;SDS011;7057;49.984;8.404;2022-10-16T14:40:24;3.17;;;2.20;;
13969;SDS011;7057;49.984;8.404;2022-10-16T14:42:53;3.13;;;2.10;;
13969;SDS011;7057;49.984;8.404;2022-10-16T14:45:21;2.93;;;1.90;;
13969;SDS011;7057;49.984;8.404;2022-10-16T14:47:51;2.03;;;1.83;;
13969;SDS011;7057;49.984;8.404;2022-10-16T14:50:21;4.03;;;2.23;;
13969;SDS011;7057;49.984;8.404;2022-10-16T14:52:48;3.17;;;2.20;;
13969;SDS011;7057;49.984;8.404;2022-10-16T14:55:15;2.50;;;2.30;;
13969;SDS011;7057;49.984;8.404;2022-10-16T14:57:45;2.77;;;2.53;;
13969;SDS011;7057;49.984;8.404;2022-10-16T15:00:17;3.43;;;2.27;;
13969;SDS011;7057;49.984;8.404;2022-10-16T15:02:46;3.93;;;3.03;;
13969;SDS011;7057;49.984;8.404;2022-10-16T15:05:16;5.03;;;3.13;;
13969;SDS011;7057;49.984;8.404;2022-10-16T15:07:44;3.83;;;2.67;;
13969;SDS011;7057;49.984;8.404;2022-10-16T15:10:13;4.47;;;2.77;;
13969;SDS011;7057;49.984;8.404;2022-10-16T15:12:40;2.53;;;2.20;;
13969;SDS011;7057;49.984;8.404;2022-10-16T15:15:23;2.50;;;2.30;;
13969;SDS011;7057;49.984;8.404;2022-10-16T15:17:56;3.53;;;2.57;;
13969;SDS011;7057;49.984;8.404;2022-10-16T15:20:26;2.37;;;1.97;;
13969;SDS011;7057;49.984;8.404;2022-10-16T15:22:54;2.83;;;2.50;;
13969;SDS011;7057;49.984;8.404;2022-10-16T15:25:29;2.60;;;2.40;;
13969;SDS011;7057;49.984;8.404;2022-10-16T15:27:58;2.90;;;2.60;;
13969;SDS011;7057;49.984;8.404;2022-10-16T15:30:28;3.77;;;2.60;;